METAR Data
IDs: Format: Raw Decoded Include TAF

Data at: 1506 UTC 21 May 2019

EGPH 211450Z 04007KT 350V060 9999 SCT047TCU 13/09 Q1017
EGPH 211420Z 03008KT 9999 SCT042CB 13/08 Q1017
EGPH 211350Z 03006KT 360V070 9999 SCT039TCU 15/09 Q1017
EGPH 211320Z VRB03KT 9999 SCT035TCU 17/09 Q1017
EGPH 211250Z 03006KT 290V060 9999 SCT035 15/09 Q1017
EGPH 211220Z 04006KT 340V070 9999 SCT029 14/09 Q1017
EGPH 211150Z 02004KT 330V070 9999 SCT026 14/09 Q1017
EGPH 211120Z VRB03KT 9999 FEW024 SCT047 14/08 Q1017
EGPH 211050Z VRB02KT 9999 FEW023 SCT031 14/09 Q1018
EGPH 211020Z VRB03KT 9999 FEW021 BKN038 13/09 Q1018
EGPH 210950Z VRB01KT 9999 FEW020 BKN038 13/08 Q1018
EGPH 210920Z VRB03KT 9999 FEW016 SCT030 13/09 Q1018
EGPH 210850Z VRB02KT 9999 FEW013 SCT035 13/09 Q1018
EGPH 210820Z VRB03KT 9999 FEW013 SCT038 12/10 Q1018
EGPH 210750Z 24005KT 210V270 9999 FEW018 11/09 Q1017
EGPH 210720Z 24006KT 9999 FEW017 11/09 Q1017
EGPH 210650Z 24005KT 9999 FEW017 10/09 Q1017
EGPH 210620Z 25006KT 9999 FEW017 10/09 Q1017
EGPH 210550Z 25008KT 9999 FEW017 09/08 Q1017
EGPH 210520Z 25008KT CAVOK 09/08 Q1017
EGPH 210450Z 25006KT 9999 FEW034 09/08 Q1017
EGPH 210420Z 25006KT 9999 SCT032 09/08 Q1017
EGPH 210350Z 24006KT 9999 SCT030 09/09 Q1016
EGPH 210320Z 24005KT 9999 BKN028 09/09 Q1016
EGPH 210250Z 24007KT 9999 OVC034 10/09 Q1016
EGPH 210220Z 25005KT 9999 -RA BKN033 10/09 Q1016
EGPH 210150Z 25006KT 9999 BKN031 10/09 Q1016
EGPH 210120Z 25006KT 9999 SCT035TCU 10/09 Q1016
EGPH 210050Z 25007KT 9999 SCT033 10/09 Q1015
EGPH 210020Z 24006KT 9999 SCT040 10/09 Q1015
EGPH 202350Z 25004KT 9999 FEW032 10/09 Q1015
EGPH 202320Z 25005KT 9999 FEW027 10/09 Q1015
EGPH 202250Z 25006KT 9999 FEW031 10/09 Q1015
EGPH 202220Z 24004KT 9999 SCT029 10/10 Q1015
EGPH 202150Z VRB03KT 9999 -RA BKN026 11/10 Q1015
EGPH 202120Z VRB02KT 9999 -RA BKN028 11/10 Q1015
EGPH 202050Z 25004KT 9999 SCT034 11/09 Q1015
EGPH 202020Z 26003KT 9999 FEW037TCU 12/09 Q1014
EGPH 201950Z 28004KT 240V310 9999 FEW041TCU 13/08 Q1014
EGPH 201920Z 29004KT 250V340 9999 FEW032TCU 14/08 Q1014
EGPH 201850Z 29004KT 260V350 9999 FEW032 14/09 Q1014
EGPH 201820Z VRB03KT 9999 FEW033 14/09 Q1014
EGPH 201750Z 29004KT 240V330 9999 FEW034 15/09 Q1013
EGPH 201720Z VRB03KT 9999 FEW042 15/09 Q1013
EGPH 201650Z 31004KT 260V360 9999 FEW033 SCT045 15/10 Q1013
EGPH 201620Z 32004KT 280V010 9999 FEW028 SCT045 14/10 Q1013
EGPH 201550Z VRB03KT 9999 FEW032 15/10 Q1013
EGPH 201520Z 27007KT 9999 FEW035 15/09 Q1013
EGPH 201450Z 27007KT 9999 FEW035 16/09 Q1013
EGPH 201420Z 25007KT 9999 FEW034 16/09 Q1013
EGPH 201350Z 26006KT 240V300 9999 SCT040 15/09 Q1013
EGPH 201320Z 26006KT 220V290 9999 SCT035 16/09 Q1013
EGPH 201250Z 26006KT 230V310 9999 SCT030TCU 16/10 Q1013
EGPH 201220Z 25007KT 220V290 9999 SCT023TCU 16/10 Q1013
EGPH 201150Z 26005KT 230V290 9999 SCT023TCU 15/10 Q1013
EGPH 201120Z 27004KT 230V300 9999 SCT022 14/10 Q1013
EGPH 201050Z 25007KT 200V270 9999 BKN020 15/10 Q1013
EGPH 201020Z 25006KT 9999 BKN019 13/10 Q1013
EGPH 200950Z 25005KT 200V280 9999 BKN019 14/10 Q1013
EGPH 200920Z 25005KT 9999 BKN020 13/10 Q1013
EGPH 200850Z 26006KT 220V300 9999 FEW015 BKN020 13/10 Q1013
EGPH 200820Z 25006KT 9999 BKN015 12/10 Q1013
EGPH 200750Z 24008KT 9999 BKN013 12/09 Q1012
EGPH 200720Z 25008KT 9999 SCT013 BKN026 12/10 Q1012
EGPH 200650Z 24008KT 9999 SCT017 11/09 Q1012
EGPH 200620Z 24006KT 9999 FEW019 BKN027 11/09 Q1012
EGPH 200550Z 25006KT 9999 FEW017 BKN022 10/09 Q1012
EGPH 200520Z 24006KT 9999 BKN021 10/09 Q1012
EGPH 200450Z 24005KT 9999 BKN023 10/09 Q1011
EGPH 200420Z 23006KT 9999 SCT024 10/09 Q1011
EGPH 200350Z 24005KT 9999 SCT025 SCT036 10/09 Q1011
EGPH 200320Z 26004KT 9999 FEW035 10/09 Q1011